Time;durP1;ratioP1;P1;durP2;ratioP2;P2;SDS_P1;SDS_P2;PMS_P1;PMS_P2;Temp;Humidity;BMP_temperature;BMP_pressure;BME280_temperature;BME280_humidity;BME280_pressure;Samples;Min_cycle;Max_cycle;Signal;HPM_P1;HPM_P2
2022/01/07 00:02:09;;;;;;;;;;;;;;;;;;5075770;28;20034;-83
2022/01/07 00:04:36;;;;;;;;;;;;;;;;;;5077345;28;20007;-82
2022/01/07 00:07:03;;;;;;;;;;;;;;;;;;5077143;28;19952;-82
2022/01/07 00:09:30;;;;;;;;;;;;;;;;;;5076947;28;20012;-81
2022/01/07 00:11:57;;;;;;;;;;;;;;;;;;5076953;28;19924;-82
2022/01/07 00:14:25;;;;;;;;;;;;;;;;;;5076754;28;20024;-82
2022/01/07 00:16:52;;;;;;;;;;;;;;;;;;5077170;28;20008;-82
2022/01/07 00:19:19;;;;;;;;;;;;;;;;;;5076908;28;19959;-82
2022/01/07 00:21:46;;;;;;;;;;;;;;;;;;5076705;28;20348;-83
2022/01/07 00:24:13;;;;;;;;;;;;;;;;;;5076827;28;20037;-83
2022/01/07 00:26:40;;;;;;;;;;;;;;;;;;5076437;28;20003;-82
2022/01/07 00:29:07;;;;;;;;;;;;;;;;;;5076651;28;20436;-82
2022/01/07 00:31:34;;;;;;;;;;;;;;;;;;5076880;28;20007;-82
2022/01/07 00:34:01;;;;;;;;;;;;;;;;;;5076514;28;20012;-82
2022/01/07 00:36:28;;;;;;;;;;;;;;;;;;5076251;28;20026;-82
2022/01/07 00:38:55;;;;;;;;;;;;;;;;;;5076165;28;20026;-83
2022/01/07 00:41:22;;;;;;;;;;;;;;;;;;5076419;28;20384;-82
2022/01/07 00:43:50;;;;;;;;;;;;;;;;;;5076382;28;20037;-82
2022/01/07 00:46:19;;;;;;;;;;;;;;;;;;5076519;28;19924;-82
2022/01/07 00:48:46;;;;;;;;;;;;;;;;;;5076164;28;19924;-82
2022/01/07 00:51:13;;;;;;;;;;;;;;;;;;5076198;28;20007;-82
2022/01/07 00:53:41;;;;;;;;;;;;;;;;;;5076003;28;19928;-82
2022/01/07 00:56:08;;;;;;;;;;;;;;;;;;5076170;28;19974;-82
2022/01/07 00:58:35;;;;;;;;;;;;;;;;;;5076177;28;19978;-81
2022/01/07 01:01:02;;;;;;;;;;;;;;;;;;5076179;28;20003;-82
2022/01/07 01:03:29;;;;;;;;;;;;;;;;;;5076062;28;20467;-82
2022/01/07 01:05:58;;;;;;;;;;;;;;;;;;5076002;28;20025;-82
2022/01/07 01:08:25;;;;;;;;;;;;;;;;;;5075904;28;20352;-83
2022/01/07 01:10:52;;;;;;;;;;;;;;;;;;5076140;28;19971;-82
2022/01/07 01:13:19;;;;;;;;;;;;;;;;;;5074881;28;20002;-83
2022/01/07 01:15:46;;;;;;;;;;;;;;;;;;5075780;28;20038;-83
2022/01/07 01:18:13;;;;;;;;;;;;;;;;;;5075651;28;20380;-82
2022/01/07 01:20:40;;;;;;;;;;;;;;;;;;5075611;28;20024;-83
2022/01/07 01:23:07;;;;;;;;;;;;;;;;;;5075781;28;20033;-83
2022/01/07 01:25:34;;;;;;;;;;;;;;;;;;5075460;28;20375;-83
2022/01/07 01:28:01;;;;;;;;;;;;;;;;;;5075557;28;20038;-83
2022/01/07 01:30:31;;;;;;;;;;;;;;;;;;5075577;28;19925;-83
2022/01/07 01:32:58;;;;;;;;;;;;;;;;;;5075404;28;19924;-83
2022/01/07 01:35:25;;;;;;;;;;;;;;;;;;5075202;28;20049;-83
2022/01/07 01:37:52;;;;;;;;;;;;;;;;;;5075471;28;19986;-83
2022/01/07 01:40:19;;;;;;;;;;;;;;;;;;5075144;28;20011;-83
2022/01/07 01:42:46;;;;;;;;;;;;;;;;;;5075358;28;19928;-83
2022/01/07 01:45:15;;;;;;;;;;;;;;;;;;5075016;28;20454;-83
2022/01/07 01:47:42;;;;;;;;;;;;;;;;;;5075021;28;19924;-83
2022/01/07 01:50:09;;;;;;;;;;;;;;;;;;5074966;28;20012;-83
2022/01/07 01:52:36;;;;;;;;;;;;;;;;;;5074977;28;20454;-83
2022/01/07 01:55:03;;;;;;;;;;;;;;;;;;5075025;28;20049;-83
2022/01/07 01:57:31;;;;;;;;;;;;;;;;;;5075080;28;20374;-83
2022/01/07 01:59:58;;;;;;;;;;;;;;;;;;5074844;28;19996;-83
2022/01/07 02:02:25;;;;;;;;;;;;;;;;;;5074759;28;20019;-83
2022/01/07 02:04:52;;;;;;;;;;;;;;;;;;5075066;28;19975;-83
2022/01/07 02:07:19;;;;;;;;;;;;;;;;;;5074846;28;19946;-83
2022/01/07 02:09:46;;;;;;;;;;;;;;;;;;5074801;28;20420;-84
2022/01/07 02:12:13;;;;;;;;;;;;;;;;;;5074793;28;20010;-83
2022/01/07 02:14:40;;;;;;;;;;;;;;;;;;5074420;28;20471;-83
2022/01/07 02:17:07;;;;;;;;;;;;;;;;;;5074514;28;20037;-84
2022/01/07 02:19:34;;;;;;;;;;;;;;;;;;5074552;28;19993;-84
2022/01/07 02:22:01;;;;;;;;;;;;;;;;;;5074462;28;20033;-84
2022/01/07 02:24:28;;;;;;;;;;;;;;;;;;5074944;28;19928;-83
2022/01/07 02:26:55;;;;;;;;;;;;;;;;;;5074289;28;20358;-83
2022/01/07 02:29:22;;;;;;;;;;;;;;;;;;5074350;28;20042;-84
2022/01/07 02:31:49;;;;;;;;;;;;;;;;;;5074234;28;20030;-84
2022/01/07 02:34:16;;;;;;;;;;;;;;;;;;5074047;28;20011;-83
2022/01/07 02:36:43;;;;;;;;;;;;;;;;;;5074333;28;19943;-83
2022/01/07 02:39:10;;;;;;;;;;;;;;;;;;5074508;28;20040;-84
2022/01/07 02:41:37;;;;;;;;;;;;;;;;;;5074152;28;20117;-84
2022/01/07 02:44:04;;;;;;;;;;;;;;;;;;5074461;28;19960;-83
2022/01/07 02:46:31;;;;;;;;;;;;;;;;;;5074246;28;19980;-84
2022/01/07 02:48:58;;;;;;;;;;;;;;;;;;5073918;28;20031;-84
2022/01/07 02:51:25;;;;;;;;;;;;;;;;;;5074068;28;19997;-84
2022/01/07 02:53:52;;;;;;;;;;;;;;;;;;5073999;28;20049;-83
2022/01/07 02:56:19;;;;;;;;;;;;;;;;;;5073925;28;20023;-83
2022/01/07 02:58:46;;;;;;;;;;;;;;;;;;5073879;28;20019;-84
2022/01/07 03:01:14;;;;;;;;;;;;;;;;;;5073983;28;20045;-84
2022/01/07 03:03:41;;;;;;;;;;;;;;;;;;5073783;28;19928;-84
2022/01/07 03:06:08;;;;;;;;;;;;;;;;;;5073904;28;20022;-84
2022/01/07 03:08:35;;;;;;;;;;;;;;;;;;5073817;28;20342;-84
2022/01/07 03:11:02;;;;;;;;;;;;;;;;;;5073690;28;20011;-83
2022/01/07 03:13:29;;;;;;;;;;;;;;;;;;5073814;28;19999;-83
2022/01/07 03:15:56;;;;;;;;;;;;;;;;;;5073586;28;20011;-83
2022/01/07 03:18:23;;;;;;;;;;;;;;;;;;5073850;28;19944;-84
2022/01/07 03:20:50;;;;;;;;;;;;;;;;;;5073658;28;20015;-83
2022/01/07 03:23:17;;;;;;;;;;;;;;;;;;5073749;28;20038;-83
2022/01/07 03:25:45;;;;;;;;;;;;;;;;;;5073452;28;19972;-83
2022/01/07 03:28:12;;;;;;;;;;;;;;;;;;5073675;28;19925;-84
2022/01/07 03:30:39;;;;;;;;;;;;;;;;;;5073587;28;19924;-83
2022/01/07 03:33:07;;;;;;;;;;;;;;;;;;5073386;28;19971;-83
2022/01/07 03:35:34;;;;;;;;;;;;;;;;;;5074315;28;19955;-84
2022/01/07 03:38:01;;;;;;;;;;;;;;;;;;5079984;28;20034;-83
2022/01/07 03:40:28;;;;;;;;;;;;;;;;;;5080096;28;20007;-84
2022/01/07 03:42:55;;;;;;;;;;;;;;;;;;5080202;28;20377;-83
2022/01/07 03:45:22;;;;;;;;;;;;;;;;;;5079937;28;19986;-83
2022/01/07 03:47:49;;;;;;;;;;;;;;;;;;5080022;28;20011;-84
2022/01/07 03:50:16;;;;;;;;;;;;;;;;;;5079950;28;20029;-83
2022/01/07 03:52:43;;;;;;;;;;;;;;;;;;5079886;28;19999;-83
2022/01/07 03:55:10;;;;;;;;;;;;;;;;;;5080076;28;20051;-83
2022/01/07 03:57:37;;;;;;;;;;;;;;;;;;5080078;28;20022;-83
2022/01/07 04:00:04;;;;;;;;;;;;;;;;;;5080004;28;19964;-83
2022/01/07 04:02:31;;;;;;;;;;;;;;;;;;5079884;28;20260;-83
2022/01/07 04:04:58;;;;;;;;;;;;;;;;;;5080085;28;20045;-82
2022/01/07 04:07:25;;;;;;;;;;;;;;;;;;5079758;28;20455;-83
2022/01/07 04:09:52;;;;;;;;;;;;;;;;;;5079923;28;20011;-82
2022/01/07 04:12:19;;;;;;;;;;;;;;;;;;5079726;28;20400;-83
2022/01/07 04:14:48;;;;;;;;;;;;;;;;;;5079788;28;19982;-82
2022/01/07 04:17:15;;;;;;;;;;;;;;;;;;5079831;28;19932;-82
2022/01/07 04:19:42;;;;;;;;;;;;;;;;;;5079717;28;19980;-82
2022/01/07 04:22:09;;;;;;;;;;;;;;;;;;5079611;28;20490;-82
2022/01/07 04:24:38;;;;;;;;;;;;;;;;;;5079223;28;20294;-82
2022/01/07 04:27:05;;;;;;;;;;;;;;;;;;5079710;28;20024;-82
2022/01/07 04:29:32;;;;;;;;;;;;;;;;;;5079967;28;19985;-81
2022/01/07 04:32:01;;;;;;;;;;;;;;;;;;5079482;28;19967;-82
2022/01/07 04:34:28;;;;;;;;;;;;;;;;;;5079755;28;20011;-82
2022/01/07 04:36:55;;;;;;;;;;;;;;;;;;5079716;28;20005;-82
2022/01/07 04:39:22;;;;;;;;;;;;;;;;;;5079794;28;20348;-82
2022/01/07 04:41:49;;;;;;;;;;;;;;;;;;5079627;28;19945;-82
2022/01/07 04:44:19;;;;;;;;;;;;;;;;;;5079576;28;19929;-81
2022/01/07 04:46:46;;;;;;;;;;;;;;;;;;5079098;28;19934;-82
2022/01/07 04:49:13;;;;;;;;;;;;;;;;;;5075133;28;20069;-81
2022/01/07 04:51:40;;;;;;;;;;;;;;;;;;5076428;28;20012;-82
2022/01/07 04:54:07;;;;;;;;;;;;;;;;;;5076133;28;20418;-81
2022/01/07 04:56:34;;;;;;;;;;;;;;;;;;5076209;28;20053;-82
2022/01/07 04:59:01;;;;;;;;;;;;;;;;;;5076092;28;20037;-82
2022/01/07 05:01:28;;;;;;;;;;;;;;;;;;5075960;28;20033;-82
2022/01/07 05:03:55;;;;;;;;;;;;;;;;;;5076290;28;20029;-82
2022/01/07 05:06:44;;;;;;;;;;;;;;;;;;5076089;28;19960;-82
2022/01/07 05:09:11;;;;;;;;;;;;;;;;;;5075909;28;19932;-82
2022/01/07 05:11:38;;;;;;;;;;;;;;;;;;5075899;28;20015;-82
2022/01/07 05:14:04;;;;;;;;;;;;;;;;;;5075821;28;20025;-82
2022/01/07 05:16:31;;;;;;;;;;;;;;;;;;5075765;28;20502;-82
2022/01/07 05:18:58;;;;;;;;;;;;;;;;;;5076023;28;19964;-83
2022/01/07 05:21:25;;;;;;;;;;;;;;;;;;5075721;28;20041;-82
2022/01/07 05:23:52;;;;;;;;;;;;;;;;;;5075626;28;20025;-82
2022/01/07 05:26:19;;;;;;;;;;;;;;;;;;5075657;28;19960;-82
2022/01/07 05:28:46;;;;;;;;;;;;;;;;;;5075450;28;20011;-82
2022/01/07 05:31:13;;;;;;;;;;;;;;;;;;5075889;28;20011;-82
2022/01/07 05:33:40;;;;;;;;;;;;;;;;;;5075641;28;20457;-82
2022/01/07 05:36:07;;;;;;;;;;;;;;;;;;5075471;28;20014;-83
2022/01/07 05:38:34;;;;;;;;;;;;;;;;;;5075301;28;20033;-83
2022/01/07 05:41:01;;;;;;;;;;;;;;;;;;5075261;28;20034;-82
2022/01/07 05:43:29;;;;;;;;;;;;;;;;;;5075159;28;20370;-83
2022/01/07 05:45:57;;;;;;;;;;;;;;;;;;5075324;28;19952;-82
2022/01/07 05:48:23;;;;;;;;;;;;;;;;;;5075109;28;19939;-83
2022/01/07 05:50:50;;;;;;;;;;;;;;;;;;5075266;28;20023;-83
2022/01/07 05:53:17;;;;;;;;;;;;;;;;;;5075031;28;20015;-83
2022/01/07 05:55:44;;;;;;;;;;;;;;;;;;5074949;28;20497;-82
2022/01/07 05:58:11;;;;;;;;;;;;;;;;;;5075115;28;19955;-82
2022/01/07 06:00:38;;;;;;;;;;;;;;;;;;5074696;28;20018;-83
2022/01/07 06:03:05;;;;;;;;;;;;;;;;;;5075075;28;20037;-83
2022/01/07 06:05:32;;;;;;;;;;;;;;;;;;5074665;28;20405;-83
2022/01/07 06:07:59;;;;;;;;;;;;;;;;;;5074704;28;20002;-82
2022/01/07 06:10:26;;;;;;;;;;;;;;;;;;5075188;28;20023;-83
2022/01/07 06:12:53;;;;;;;;;;;;;;;;;;5074635;28;20385;-83
2022/01/07 06:15:20;;;;;;;;;;;;;;;;;;5074458;28;20015;-83
2022/01/07 06:17:47;;;;;;;;;;;;;;;;;;5074297;28;20007;-83
2022/01/07 06:20:15;;;;;;;;;;;;;;;;;;5074451;28;20029;-83
2022/01/07 06:22:42;;;;;;;;;;;;;;;;;;5074459;28;20031;-83
2022/01/07 06:25:09;;;;;;;;;;;;;;;;;;5074270;28;20350;-82
2022/01/07 06:27:38;;;;;;;;;;;;;;;;;;5074564;28;20045;-83
2022/01/07 06:30:05;;;;;;;;;;;;;;;;;;5074158;28;19931;-82
2022/01/07 06:32:32;;;;;;;;;;;;;;;;;;5074139;28;19978;-83
2022/01/07 06:34:59;;;;;;;;;;;;;;;;;;5074213;28;19968;-83
2022/01/07 06:37:26;;;;;;;;;;;;;;;;;;5073970;28;20373;-82
2022/01/07 06:39:53;;;;;;;;;;;;;;;;;;5074315;28;20059;-83
2022/01/07 06:42:19;;;;;;;;;;;;;;;;;;5074134;28;20027;-82
2022/01/07 06:44:46;;;;;;;;;;;;;;;;;;5073853;28;20015;-82
2022/01/07 06:47:13;;;;;;;;;;;;;;;;;;5073817;28;19956;-82
2022/01/07 06:49:40;;;;;;;;;;;;;;;;;;5073448;28;19962;-83
2022/01/07 06:52:07;;;;;;;;;;;;;;;;;;5074127;28;20003;-82
2022/01/07 06:54:34;;;;;;;;;;;;;;;;;;5074240;28;20007;-83
2022/01/07 06:57:01;;;;;;;;;;;;;;;;;;5073618;28;20023;-82
2022/01/07 06:59:28;;;;;;;;;;;;;;;;;;5073775;28;20045;-82
2022/01/07 07:01:55;;;;;;;;;;;;;;;;;;5073606;28;20446;-82
2022/01/07 07:04:23;;;;;;;;;;;;;;;;;;5073707;28;20029;-83
2022/01/07 07:06:50;;;;;;;;;;;;;;;;;;5073537;28;20547;-82
2022/01/07 07:09:18;;;;;;;;;;;;;;;;;;5073918;28;20030;-83
2022/01/07 07:11:45;;;;;;;;;;;;;;;;;;5073095;28;20389;-81
2022/01/07 07:14:12;;;;;;;;;;;;;;;;;;5073694;28;19963;-82
2022/01/07 07:16:39;;;;;;;;;;;;;;;;;;5073726;28;19931;-82
2022/01/07 07:19:06;;;;;;;;;;;;;;;;;;5073572;28;19985;-83
2022/01/07 07:21:33;;;;;;;;;;;;;;;;;;5073769;28;20001;-83
2022/01/07 07:24:00;;;;;;;;;;;;;;;;;;5073479;28;19943;-83
2022/01/07 07:26:27;;;;;;;;;;;;;;;;;;5073659;28;19974;-82
2022/01/07 07:28:53;;;;;;;;;;;;;;;;;;5073490;28;19974;-82
2022/01/07 07:31:21;;;;;;;;;;;;;;;;;;5073509;28;19978;-82
2022/01/07 07:34:19;;;;;;;;;;;;;;;;;;5073422;28;20558;-82
2022/01/07 07:36:44;;;;;;;;;;;;;;;;;;5073339;28;19958;-83
2022/01/07 07:39:11;;;;;;;;;;;;;;;;;;5073400;28;19947;-83
2022/01/07 07:41:38;;;;;;;;;;;;;;;;;;5073469;28;20021;-83
2022/01/07 07:44:05;;;;;;;;;;;;;;;;;;5073213;28;20010;-82
2022/01/07 07:46:32;;;;;;;;;;;;;;;;;;5073379;28;19977;-82
2022/01/07 07:49:00;;;;;;;;;;;;;;;;;;5073386;28;20058;-83
2022/01/07 07:51:27;;;;;;;;;;;;;;;;;;5073349;28;20440;-83
2022/01/07 07:53:54;;;;;;;;;;;;;;;;;;5073377;28;20010;-82
2022/01/07 07:56:21;;;;;;;;;;;;;;;;;;5073182;28;19979;-82
2022/01/07 07:58:48;;;;;;;;;;;;;;;;;;5073057;28;20430;-82
2022/01/07 08:01:15;;;;;;;;;;;;;;;;;;5073248;28;20003;-82
2022/01/07 08:03:42;;;;;;;;;;;;;;;;;;5073333;28;20012;-82
2022/01/07 08:06:09;;;;;;;;;;;;;;;;;;5073198;28;19932;-83
2022/01/07 08:08:36;;;;;;;;;;;;;;;;;;5073143;28;20011;-82
2022/01/07 08:11:03;;;;;;;;;;;;;;;;;;5072995;28;19924;-82
2022/01/07 08:15:57;;;;;;;;;;;;;;;;;;5073245;28;20003;-83
2022/01/07 08:16:19;;;;;;;;;;;;;;;;;;5073072;28;19962;-82
2022/01/07 08:18:46;;;;;;;;;;;;;;;;;;5073258;28;19931;-83
2022/01/07 08:21:13;;;;;;;;;;;;;;;;;;5072348;28;20434;-82
2022/01/07 08:23:40;;;;;;;;;;;;;;;;;;5076544;28;19943;-82
2022/01/07 08:26:09;;;;;;;;;;;;;;;;;;5076861;28;20332;-82
2022/01/07 08:28:40;;;;;;;;;;;;;;;;;;5076800;28;19988;-83
2022/01/07 08:31:25;;;;;;;;;;;;;;;;;;5076976;28;19924;-82
2022/01/07 08:36:36;;;;;;;;;;;;;;;;;;5076806;28;20313;-82
2022/01/07 08:39:03;;;;;;;;;;;;;;;;;;5076756;28;19928;-83
2022/01/07 08:41:30;;;;;;;;;;;;;;;;;;5076582;28;20041;-82
2022/01/07 08:43:57;;;;;;;;;;;;;;;;;;5076422;28;20041;-82
2022/01/07 08:46:24;;;;;;;;;;;;;;;;;;5076402;28;19982;-82
2022/01/07 08:48:51;;;;;;;;;;;;;;;;;;5076362;28;20062;-82
2022/01/07 08:51:18;;;;;;;;;;;;;;;;;;5076387;28;20019;-82
2022/01/07 08:53:45;;;;;;;;;;;;;;;;;;5076043;28;20392;-82
2022/01/07 08:56:12;;;;;;;;;;;;;;;;;;5076144;28;20015;-82
2022/01/07 08:58:42;;;;;;;;;;;;;;;;;;5076178;28;20014;-82
2022/01/07 09:01:09;;;;;;;;;;;;;;;;;;5076053;28;19943;-82
2022/01/07 09:03:36;;;;;;;;;;;;;;;;;;5076178;28;20043;-82
2022/01/07 09:06:03;;;;;;;;;;;;;;;;;;5075987;28;20049;-82
2022/01/07 09:08:31;;;;;;;;;;;;;;;;;;5075980;28;20031;-82
2022/01/07 09:10:58;;;;;;;;;;;;;;;;;;5076020;28;19943;-82
2022/01/07 09:13:25;;;;;;;;;;;;;;;;;;5075864;28;19989;-82
2022/01/07 09:15:52;;;;;;;;;;;;;;;;;;5075996;28;20045;-82
2022/01/07 09:18:20;;;;;;;;;;;;;;;;;;5075958;28;20021;-82
2022/01/07 09:20:48;;;;;;;;;;;;;;;;;;5075703;28;19924;-82
2022/01/07 09:23:15;;;;;;;;;;;;;;;;;;5075588;28;20000;-83
2022/01/07 09:25:42;;;;;;;;;;;;;;;;;;5075508;28;20011;-82
2022/01/07 09:28:09;;;;;;;;;;;;;;;;;;5075456;28;20042;-82
2022/01/07 09:30:36;;;;;;;;;;;;;;;;;;5075597;28;19974;-83
2022/01/07 09:33:03;;;;;;;;;;;;;;;;;;5075201;28;20344;-82
2022/01/07 09:35:30;;;;;;;;;;;;;;;;;;5074672;28;20398;-83
2022/01/07 09:37:57;;;;;;;;;;;;;;;;;;5075452;28;19931;-82
2022/01/07 09:40:24;;;;;;;;;;;;;;;;;;5075390;28;19989;-83
2022/01/07 09:42:51;;;;;;;;;;;;;;;;;;5075285;28;20391;-82
2022/01/07 09:45:18;;;;;;;;;;;;;;;;;;5075387;28;19976;-83
2022/01/07 09:47:45;;;;;;;;;;;;;;;;;;5075436;28;20037;-83
2022/01/07 09:50:12;;;;;;;;;;;;;;;;;;5075278;28;20050;-83
2022/01/07 09:52:39;;;;;;;;;;;;;;;;;;5075051;28;19943;-82
2022/01/07 09:55:06;;;;;;;;;;;;;;;;;;5073247;28;20025;-80
2022/01/07 09:57:33;;;;;;;;;;;;;;;;;;5074733;28;19970;-82
2022/01/07 10:00:00;;;;;;;;;;;;;;;;;;5075205;28;20030;-82
2022/01/07 10:02:27;;;;;;;;;;;;;;;;;;5075073;28;19951;-82
2022/01/07 10:04:54;;;;;;;;;;;;;;;;;;5074951;28;20012;-82
2022/01/07 10:07:21;;;;;;;;;;;;;;;;;;5074666;28;19946;-80
2022/01/07 10:09:48;;;;;;;;;;;;;;;;;;5074852;28;19993;-82
2022/01/07 10:12:15;;;;;;;;;;;;;;;;;;5074494;28;20024;-80
2022/01/07 10:14:42;;;;;;;;;;;;;;;;;;5074729;28;20019;-82
2022/01/07 10:17:10;;;;;;;;;;;;;;;;;;5074532;28;19924;-82
2022/01/07 10:19:37;;;;;;;;;;;;;;;;;;5074614;28;20025;-83
2022/01/07 10:22:04;;;;;;;;;;;;;;;;;;5074523;28;20003;-82
2022/01/07 10:24:31;;;;;;;;;;;;;;;;;;5074319;28;20048;-82
2022/01/07 10:26:58;;;;;;;;;;;;;;;;;;5074426;28;20015;-83
2022/01/07 10:29:25;;;;;;;;;;;;;;;;;;5074334;28;20016;-82
2022/01/07 10:31:52;;;;;;;;;;;;;;;;;;5074274;28;20477;-83
2022/01/07 10:34:19;;;;;;;;;;;;;;;;;;5074068;28;19996;-82
2022/01/07 10:36:46;;;;;;;;;;;;;;;;;;5074164;28;20047;-82
2022/01/07 10:39:13;;;;;;;;;;;;;;;;;;5074064;28;20379;-82
2022/01/07 10:41:40;;;;;;;;;;;;;;;;;;5074319;28;20044;-83
2022/01/07 10:44:11;;;;;;;;;;;;;;;;;;5074260;28;19975;-83
2022/01/07 10:46:38;;;;;;;;;;;;;;;;;;5073000;28;19955;-83
2022/01/07 10:49:05;;;;;;;;;;;;;;;;;;5074034;28;20047;-82
2022/01/07 10:51:32;;;;;;;;;;;;;;;;;;5073914;28;19928;-83
2022/01/07 10:53:59;;;;;;;;;;;;;;;;;;5073976;28;19975;-83
2022/01/07 10:56:27;;;;;;;;;;;;;;;;;;5073888;28;20008;-82
2022/01/07 10:58:55;;;;;;;;;;;;;;;;;;5074024;28;19956;-83
2022/01/07 11:01:22;;;;;;;;;;;;;;;;;;5073673;28;20012;-82
2022/01/07 11:03:49;;;;;;;;;;;;;;;;;;5073424;28;20357;-82
2022/01/07 11:06:16;;;;;;;;;;;;;;;;;;5073658;28;19971;-82
2022/01/07 11:08:43;;;;;;;;;;;;;;;;;;5073666;28;19982;-82
2022/01/07 11:11:10;;;;;;;;;;;;;;;;;;5073801;28;20374;-83
2022/01/07 11:13:37;;;;;;;;;;;;;;;;;;5073656;28;20007;-82
2022/01/07 11:16:04;;;;;;;;;;;;;;;;;;5073594;28;20030;-83
2022/01/07 11:18:31;;;;;;;;;;;;;;;;;;5073569;28;20392;-82
2022/01/07 11:20:58;;;;;;;;;;;;;;;;;;5073567;28;19924;-82
2022/01/07 11:23:25;;;;;;;;;;;;;;;;;;5073248;28;20029;-82
2022/01/07 11:25:53;;;;;;;;;;;;;;;;;;5073206;28;19966;-83
2022/01/07 11:28:20;;;;;;;;;;;;;;;;;;5073097;28;19941;-82
2022/01/07 11:30:47;;;;;;;;;;;;;;;;;;5073142;28;19935;-82
2022/01/07 11:33:14;;;;;;;;;;;;;;;;;;5073237;28;20452;-82
2022/01/07 11:35:44;;;;;;;;;;;;;;;;;;5073698;28;20045;-83
2022/01/07 11:38:11;;;;;;;;;;;;;;;;;;5073431;28;19931;-82
2022/01/07 11:40:38;;;;;;;;;;;;;;;;;;5073582;28;20034;-82
2022/01/07 11:43:05;;;;;;;;;;;;;;;;;;5073235;28;20354;-82
2022/01/07 11:45:32;;;;;;;;;;;;;;;;;;5073054;28;20442;-83
2022/01/07 11:47:59;;;;;;;;;;;;;;;;;;5073056;28;19947;-82
2022/01/07 11:50:26;;;;;;;;;;;;;;;;;;5073421;28;19952;-82
2022/01/07 11:52:53;;;;;;;;;;;;;;;;;;5073230;28;20039;-82
2022/01/07 11:55:20;;;;;;;;;;;;;;;;;;5073369;28;20044;-82
2022/01/07 11:57:47;;;;;;;;;;;;;;;;;;5075081;28;19968;-82
2022/01/07 12:00:14;;;;;;;;;;;;;;;;;;5077021;28;20512;-83
2022/01/07 12:02:41;;;;;;;;;;;;;;;;;;5077368;28;20003;-82
2022/01/07 12:05:08;;;;;;;;;;;;;;;;;;5076902;28;20408;-82
2022/01/07 12:07:35;;;;;;;;;;;;;;;;;;5076959;28;20045;-82
2022/01/07 12:10:02;;;;;;;;;;;;;;;;;;5077299;28;20041;-82
2022/01/07 12:12:29;;;;;;;;;;;;;;;;;;5076903;28;20066;-83
2022/01/07 12:14:56;;;;;;;;;;;;;;;;;;5076988;28;20002;-81
2022/01/07 12:17:25;;;;;;;;;;;;;;;;;;5077147;28;20066;-82
2022/01/07 12:19:52;;;;;;;;;;;;;;;;;;5076695;28;20370;-81
2022/01/07 12:22:20;;;;;;;;;;;;;;;;;;5077007;28;20061;-82
2022/01/07 12:24:48;;;;;;;;;;;;;;;;;;5076839;28;19958;-81
2022/01/07 12:27:18;;;;;;;;;;;;;;;;;;5076577;28;20471;-82
2022/01/07 12:29:45;;;;;;;;;;;;;;;;;;5076589;28;20500;-81
2022/01/07 12:32:12;;;;;;;;;;;;;;;;;;5076945;28;20049;-82
2022/01/07 12:34:40;;;;;;;;;;;;;;;;;;5076822;28;20044;-82
2022/01/07 12:37:07;;;;;;;;;;;;;;;;;;5076446;28;20465;-82
2022/01/07 12:39:34;;;;;;;;;;;;;;;;;;5076566;28;20052;-82
2022/01/07 12:42:01;;;;;;;;;;;;;;;;;;5076543;28;20046;-84
2022/01/07 12:44:28;;;;;;;;;;;;;;;;;;5076653;28;20052;-81
2022/01/07 12:46:55;;;;;;;;;;;;;;;;;;5076667;28;20402;-82
2022/01/07 12:49:22;;;;;;;;;;;;;;;;;;5077023;28;20056;-81
2022/01/07 12:51:49;;;;;;;;;;;;;;;;;;5077022;28;19947;-82
2022/01/07 12:54:16;;;;;;;;;;;;;;;;;;5077015;28;20385;-83
2022/01/07 12:56:43;;;;;;;;;;;;;;;;;;5077289;28;20043;-82
2022/01/07 12:59:10;;;;;;;;;;;;;;;;;;5077755;28;19961;-84
2022/01/07 13:01:37;;;;;;;;;;;;;;;;;;5079148;28;19991;-84
2022/01/07 13:04:04;;;;;;;;;;;;;;;;;;5079078;28;20044;-83
2022/01/07 13:06:31;;;;;;;;;;;;;;;;;;5077554;28;19989;-84
2022/01/07 13:08:58;;;;;;;;;;;;;;;;;;5076268;28;20473;-82
2022/01/07 13:11:25;;;;;;;;;;;;;;;;;;5076241;28;19987;-82
2022/01/07 13:13:52;;;;;;;;;;;;;;;;;;5076220;28;20405;-82
2022/01/07 13:16:19;;;;;;;;;;;;;;;;;;5076800;28;20037;-83
2022/01/07 13:18:46;;;;;;;;;;;;;;;;;;5076460;28;20064;-83
2022/01/07 13:21:13;;;;;;;;;;;;;;;;;;5076134;28;20055;-83
2022/01/07 13:23:40;;;;;;;;;;;;;;;;;;5075793;28;19952;-83
2022/01/07 13:26:07;;;;;;;;;;;;;;;;;;5076306;28;20005;-82
2022/01/07 13:28:34;;;;;;;;;;;;;;;;;;5075890;28;20369;-82
2022/01/07 13:31:01;;;;;;;;;;;;;;;;;;5075619;28;20048;-83
2022/01/07 13:33:28;;;;;;;;;;;;;;;;;;5075557;28;20469;-81
2022/01/07 13:35:56;;;;;;;;;;;;;;;;;;5075445;28;20426;-85
2022/01/07 13:38:23;;;;;;;;;;;;;;;;;;5075365;28;19970;-82
2022/01/07 13:40:50;;;;;;;;;;;;;;;;;;5075565;28;19986;-81
2022/01/07 13:43:17;;;;;;;;;;;;;;;;;;5075312;28;20058;-83
2022/01/07 13:45:44;;;;;;;;;;;;;;;;;;5076395;28;20531;-81
2022/01/07 13:48:11;;;;;;;;;;;;;;;;;;5075089;28;20004;-83
2022/01/07 13:50:39;;;;;;;;;;;;;;;;;;5075100;28;20042;-83
2022/01/07 13:53:06;;;;;;;;;;;;;;;;;;5074983;28;19954;-82
2022/01/07 13:55:34;;;;;;;;;;;;;;;;;;5075115;28;20037;-82
2022/01/07 13:58:01;;;;;;;;;;;;;;;;;;5074977;28;20031;-82
2022/01/07 14:00:28;;;;;;;;;;;;;;;;;;5074932;28;20000;-83
2022/01/07 14:02:55;;;;;;;;;;;;;;;;;;5074931;28;20000;-82
2022/01/07 14:05:22;;;;;;;;;;;;;;;;;;5074901;28;20370;-83
2022/01/07 14:07:49;;;;;;;;;;;;;;;;;;5074866;28;20049;-83
2022/01/07 14:10:16;;;;;;;;;;;;;;;;;;5074838;28;20044;-84
2022/01/07 14:12:43;;;;;;;;;;;;;;;;;;5074787;28;19998;-83
2022/01/07 14:15:10;;;;;;;;;;;;;;;;;;5074591;28;20052;-82
2022/01/07 14:17:37;;;;;;;;;;;;;;;;;;5074232;28;19958;-83
2022/01/07 14:20:04;;;;;;;;;;;;;;;;;;5074052;28;20037;-83
2022/01/07 14:22:31;;;;;;;;;;;;;;;;;;5074700;28;19977;-83
2022/01/07 14:24:58;;;;;;;;;;;;;;;;;;5074749;28;20022;-83
2022/01/07 14:27:25;;;;;;;;;;;;;;;;;;5074534;28;20019;-84
2022/01/07 14:29:52;;;;;;;;;;;;;;;;;;5074613;28;19949;-83
2022/01/07 14:32:20;;;;;;;;;;;;;;;;;;5074663;28;19993;-84
2022/01/07 14:34:48;;;;;;;;;;;;;;;;;;5075573;28;19956;-83
2022/01/07 14:37:14;;;;;;;;;;;;;;;;;;5075142;28;19942;-83
2022/01/07 14:39:42;;;;;;;;;;;;;;;;;;5074646;28;20055;-83
2022/01/07 14:42:09;;;;;;;;;;;;;;;;;;5074157;28;19989;-83
2022/01/07 14:44:36;;;;;;;;;;;;;;;;;;5074076;28;20039;-82
2022/01/07 14:47:03;;;;;;;;;;;;;;;;;;5074046;28;20344;-84
2022/01/07 14:49:30;;;;;;;;;;;;;;;;;;5073848;28;20061;-84
2022/01/07 14:51:57;;;;;;;;;;;;;;;;;;5074101;28;20033;-84
2022/01/07 14:54:24;;;;;;;;;;;;;;;;;;5074083;28;20037;-84
2022/01/07 14:56:54;;;;;;;;;;;;;;;;;;5073899;28;20038;-83
2022/01/07 14:59:21;;;;;;;;;;;;;;;;;;5073705;28;20021;-82
2022/01/07 15:01:48;;;;;;;;;;;;;;;;;;5074040;28;20046;-83
2022/01/07 15:04:15;;;;;;;;;;;;;;;;;;5073937;28;20473;-84
2022/01/07 15:06:42;;;;;;;;;;;;;;;;;;5073628;28;20003;-83
2022/01/07 15:09:09;;;;;;;;;;;;;;;;;;5073323;28;20393;-82
2022/01/07 15:11:36;;;;;;;;;;;;;;;;;;5073365;28;20051;-82
2022/01/07 15:14:03;;;;;;;;;;;;;;;;;;5073324;28;20038;-82
2022/01/07 15:16:36;;;;;;;;;;;;;;;;;;5073656;28;20472;-83
2022/01/07 15:19:03;;;;;;;;;;;;;;;;;;5073549;28;19970;-82
2022/01/07 15:21:30;;;;;;;;;;;;;;;;;;5073750;28;20041;-83
2022/01/07 15:24:00;;;;;;;;;;;;;;;;;;5073738;28;20388;-82
2022/01/07 15:26:27;;;;;;;;;;;;;;;;;;5073460;28;19961;-82
2022/01/07 15:28:54;;;;;;;;;;;;;;;;;;5073693;28;20034;-82
2022/01/07 15:31:21;;;;;;;;;;;;;;;;;;5073133;28;20377;-82
2022/01/07 15:33:49;;;;;;;;;;;;;;;;;;5073420;28;20064;-82
2022/01/07 15:36:16;;;;;;;;;;;;;;;;;;5073568;28;19948;-82
2022/01/07 15:38:43;;;;;;;;;;;;;;;;;;5073386;28;20059;-83
2022/01/07 15:41:10;;;;;;;;;;;;;;;;;;5073363;28;20031;-82
2022/01/07 15:43:38;;;;;;;;;;;;;;;;;;5073372;28;20499;-82
2022/01/07 15:46:05;;;;;;;;;;;;;;;;;;5073615;28;19955;-82
2022/01/07 15:48:32;;;;;;;;;;;;;;;;;;5073302;28;19971;-83
2022/01/07 15:50:59;;;;;;;;;;;;;;;;;;5073595;28;20056;-82
2022/01/07 15:53:27;;;;;;;;;;;;;;;;;;5073363;28;19994;-83
2022/01/07 15:55:54;;;;;;;;;;;;;;;;;;5073299;28;19958;-82
2022/01/07 15:58:21;;;;;;;;;;;;;;;;;;5073357;28;20012;-82
2022/01/07 16:00:48;;;;;;;;;;;;;;;;;;5073210;28;20054;-82
2022/01/07 16:03:16;;;;;;;;;;;;;;;;;;5073252;28;20048;-83
2022/01/07 16:05:43;;;;;;;;;;;;;;;;;;5073188;28;19952;-82
2022/01/07 16:08:10;;;;;;;;;;;;;;;;;;5073081;28;19988;-81
2022/01/07 16:10:37;;;;;;;;;;;;;;;;;;5073416;28;20046;-82
2022/01/07 16:13:04;;;;;;;;;;;;;;;;;;5073222;28;20045;-83
2022/01/07 16:15:31;;;;;;;;;;;;;;;;;;5073080;28;20042;-83
2022/01/07 16:17:58;;;;;;;;;;;;;;;;;;5072879;28;19951;-82
2022/01/07 16:20:25;;;;;;;;;;;;;;;;;;5073166;28;19963;-83
2022/01/07 16:22:52;;;;;;;;;;;;;;;;;;5073482;28;20482;-82
2022/01/07 16:25:20;;;;;;;;;;;;;;;;;;5073168;28;20057;-82
2022/01/07 16:27:47;;;;;;;;;;;;;;;;;;5073110;28;19993;-83
2022/01/07 16:30:14;;;;;;;;;;;;;;;;;;5073139;28;20454;-83
2022/01/07 16:32:42;;;;;;;;;;;;;;;;;;5072997;28;19998;-83
2022/01/07 16:35:09;;;;;;;;;;;;;;;;;;5073173;28;19960;-82
2022/01/07 16:37:36;;;;;;;;;;;;;;;;;;5073154;28;19994;-82
2022/01/07 16:40:03;;;;;;;;;;;;;;;;;;5072934;28;20007;-82
2022/01/07 16:42:30;;;;;;;;;;;;;;;;;;5072749;28;20403;-82
2022/01/07 16:44:57;;;;;;;;;;;;;;;;;;5076558;28;20039;-82
2022/01/07 16:47:26;;;;;;;;;;;;;;;;;;5076432;28;20051;-83
2022/01/07 16:49:53;;;;;;;;;;;;;;;;;;5076353;28;20022;-83